| time (UTC) | temp F | wind direction | speed knots | gust knots | rain 1hr in | rain 24hr in | rain mn in | humidity % | barometer mb |
| 20260902113007 | 86 | 228 | 2.6 | 5.2 | 0.00 | 0.00 | 0.00 | 33 | 1019.8 |
| 20260902112507 | 86 | 298 | 2.6 | 6.1 | 0.00 | 0.00 | 0.00 | 34 | 1019.8 |
| 20260902112006 | 85 | 214 | 2.6 | 6.1 | 0.00 | 0.00 | 0.00 | 35 | 1019.8 |
| 20260902111506 | 85 | 172 | 0.9 | 5.2 | 0.00 | 0.00 | 0.00 | 35 | 1019.9 |
| 20260902111006 | 85 | 183 | 1.7 | 4.3 | 0.00 | 0.00 | 0.00 | 33 | 1019.9 |
| 20260902110506 | 84 | 194 | 0.9 | 4.3 | 0.00 | 0.00 | 0.00 | 36 | 1020.0 |
| 20260902110008 | 84 | 194 | 0.9 | 2.6 | 0.00 | 0.00 | 0.00 | 37 | 1020.0 |
| 20260902105007 | 84 | 70 | 0.0 | 0.0 | 0.00 | 0.00 | 0.00 | 41 | 1020.0 |
| 20260902104006 | 83 | 227 | 1.7 | 2.6 | 0.00 | 0.00 | 0.00 | 42 | 1020.0 |
| 20260902103507 | 83 | 225 | 2.6 | 4.3 | 0.00 | 0.00 | 0.00 | 43 | 1020.0 |
| 20260902103007 | 82 | 292 | 1.7 | 2.6 | 0.00 | 0.00 | 0.00 | 44 | 1020.0 |
| 20260902102507 | 82 | 284 | 0.9 | 2.6 | 0.00 | 0.00 | 0.00 | 45 | 1020.0 |
| 20260902101506 | 81 | 188 | 1.7 | 4.3 | 0.00 | 0.00 | 0.00 | 49 | 1020.1 |
| 20260902100507 | 81 | 246 | 1.7 | 5.2 | 0.00 | 0.00 | 0.00 | 51 | 1020.2 |
| 20260902100008 | 81 | 220 | 1.7 | 6.1 | 0.00 | 0.00 | 0.00 | 51 | 1020.2 |
| 20260902095508 | 80 | 137 | 0.9 | 2.6 | 0.00 | 0.00 | 0.00 | 50 | 1020.2 |
| 20260902094508 | 79 | 103 | 0.9 | 4.3 | 0.00 | 0.00 | 0.00 | 52 | 1020.2 |
| 20260902094008 | 79 | 191 | 2.6 | 5.2 | 0.00 | 0.00 | 0.00 | 53 | 1020.2 |
| 20260902093508 | 78 | 193 | 1.7 | 4.3 | 0.00 | 0.00 | 0.00 | 55 | 1020.2 |
| 20260902093008 | 78 | 169 | 1.7 | 4.3 | 0.00 | 0.00 | 0.00 | 55 | 1020.1 |
| 20260902092509 | 78 | 162 | 2.6 | 5.2 | 0.00 | 0.00 | 0.00 | 56 | 1020.1 |
| 20260902092008 | 78 | 190 | 2.6 | 4.3 | 0.00 | 0.00 | 0.00 | 57 | 1020.1 |
| 20260902091008 | 77 | 189 | 1.7 | 5.2 | 0.00 | 0.00 | 0.00 | 56 | 1020.0 |
| 20260902090508 | 77 | 204 | 1.7 | 6.1 | 0.00 | 0.00 | 0.00 | 56 | 1020.0 |
| 20260902090008 | 76 | 177 | 1.7 | 6.1 | 0.00 | 0.00 | 0.00 | 56 | 1020.0 |
| 20260902085507 | 76 | 213 | 2.6 | 5.2 | 0.00 | 0.00 | 0.00 | 56 | 1020.0 |
| 20260902084008 | 76 | 188 | 0.9 | 2.6 | 0.00 | 0.00 | 0.00 | 53 | 1020.0 |
| 20260902083508 | 76 | 195 | 1.7 | 2.6 | 0.00 | 0.00 | 0.00 | 54 | 1019.9 |
| 20260902083009 | 76 | 182 | 0.0 | 0.0 | 0.00 | 0.00 | 0.00 | 54 | 1019.8 |
| 20260902082008 | 75 | 75 | 0.0 | 1.7 | 0.00 | 0.00 | 0.00 | 54 | 1019.8 |
| 20260902081508 | 74 | 75 | 0.9 | 2.6 | 0.00 | 0.00 | 0.00 | 54 | 1019.8 |
| 20260902081008 | 73 | 75 | 0.9 | 2.6 | 0.00 | 0.00 | 0.00 | 54 | 1019.7 |
| 20260902080508 | 73 | 31 | 1.7 | 2.6 | 0.00 | 0.00 | 0.00 | 55 | 1019.7 |
| 20260902080011 | 72 | 343 | 0.9 | 2.6 | 0.00 | 0.00 | 0.00 | 54 | 1019.6 |
| 20260902075507 | 72 | 5 | 1.7 | 2.6 | 0.00 | 0.00 | 0.00 | 54 | 1019.6 |
| 20260902075008 | 71 | 5 | 1.7 | 2.6 | 0.00 | 0.00 | 0.00 | 53 | 1019.4 |
| 20260902074508 | 71 | 20 | 0.9 | 1.7 | 0.00 | 0.00 | 0.00 | 53 | 1019.5 |
| 20260902073508 | 71 | 59 | 0.0 | 0.0 | 0.00 | 0.00 | 0.00 | 52 | 1019.5 |
| 20260902073008 | 71 | 59 | 0.0 | 0.0 | 0.00 | 0.00 | 0.00 | 52 | 1019.5 |
| 20260902071508 | 70 | 22 | 0.0 | 0.0 | 0.00 | 0.00 | 0.00 | 53 | 1019.5 |
| 20260902071008 | 69 | 22 | 0.0 | 0.0 | 0.00 | 0.00 | 0.00 | 54 | 1019.4 |
| 20260902070508 | 68 | 22 | 0.0 | 0.0 | 0.00 | 0.00 | 0.00 | 55 | 1019.2 |
| 20260902070009 | 67 | 22 | 0.0 | 0.0 | 0.00 | 0.00 | 0.00 | 56 | 1019.2 |
| 20260902065508 | 66 | 22 | 0.0 | 2.6 | 0.00 | 0.00 | 0.00 | 58 | 1019.1 |
| 20260902065008 | 66 | 22 | 1.7 | 2.6 | 0.00 | 0.00 | 0.00 | 58 | 1019.0 |
| 20260902064508 | 65 | 22 | 1.7 | 2.6 | 0.00 | 0.00 | 0.00 | 58 | 1019.0 |
| 20260902063508 | 64 | 22 | 0.0 | 0.0 | 0.00 | 0.00 | 0.00 | 59 | 1018.9 |
| 20260902063007 | 63 | 22 | 0.0 | 0.0 | 0.00 | 0.00 | 0.00 | 59 | 1019.0 |
| 20260902062508 | 62 | 22 | 0.0 | 0.0 | 0.00 | 0.00 | 0.00 | 61 | 1018.9 |
| 20260902062008 | 62 | 22 | 0.0 | 0.0 | 0.00 | 0.00 | 0.00 | 57 | 1018.9 |
| 20260902061509 | 63 | 22 | 0.0 | 0.0 | 0.00 | 0.00 | 0.00 | 56 | 1018.9 |
| 20260902061008 | 63 | 22 | 0.0 | 0.0 | 0.00 | 0.00 | 0.00 | 55 | 1018.9 |
| 20260902060508 | 64 | 22 | 0.0 | 0.0 | 0.00 | 0.00 | 0.00 | 54 | 1018.9 |
| 20260902060008 | 65 | 22 | 0.0 | 0.0 | 0.00 | 0.00 | 0.00 | 55 | 1018.9 |
| 20260902055508 | 65 | 22 | 0.0 | 0.0 | 0.00 | 0.00 | 0.00 | 55 | 1018.8 |
| 20260902055008 | 64 | 22 | 0.0 | 0.0 | 0.00 | 0.00 | 0.00 | 56 | 1018.8 |
| 20260902054007 | 64 | 22 | 0.0 | 0.0 | 0.00 | 0.00 | 0.00 | 55 | 1018.6 |
| 20260902053508 | 64 | 22 | 0.0 | 0.0 | 0.00 | 0.00 | 0.00 | 54 | 1018.4 |
| 20260902053008 | 65 | 22 | 0.0 | 0.0 | 0.00 | 0.00 | 0.00 | 54 | 1018.4 |
| 20260902052508 | 65 | 22 | 0.0 | 1.7 | 0.00 | 0.00 | 0.00 | 55 | 1018.4 |
| 20260902052008 | 65 | 17 | 2.6 | 2.6 | 0.00 | 0.00 | 0.00 | 54 | 1018.3 |
| 20260902051508 | 65 | 12 | 2.6 | 2.6 | 0.00 | 0.00 | 0.00 | 54 | 1018.3 |
| 20260902051008 | 65 | 24 | 2.6 | 2.6 | 0.00 | 0.00 | 0.00 | 54 | 1018.3 |
| 20260902050508 | 65 | 24 | 2.6 | 2.6 | 0.00 | 0.00 | 0.00 | 53 | 1018.2 |
| 20260902050009 | 65 | 24 | 0.9 | 1.7 | 0.00 | 0.00 | 0.00 | 52 | 1018.1 |
| 20260902045508 | 65 | 24 | 0.9 | 1.7 | 0.00 | 0.00 | 0.00 | 52 | 1018.1 |
| 20260902044508 | 65 | 24 | 1.7 | 2.6 | 0.00 | 0.00 | 0.00 | 53 | 1018.1 |
| 20260902044008 | 65 | 18 | 2.6 | 4.3 | 0.00 | 0.00 | 0.00 | 52 | 1017.9 |
| 20260902043508 | 65 | 10 | 3.5 | 5.2 | 0.00 | 0.00 | 0.00 | 51 | 1017.9 |
| 20260902043008 | 65 | 8 | 4.3 | 6.1 | 0.00 | 0.00 | 0.00 | 51 | 1017.9 |
| 20260902042507 | 65 | 2 | 2.6 | 4.3 | 0.00 | 0.00 | 0.00 | 50 | 1017.8 |
| 20260902041007 | 65 | 13 | 1.7 | 2.6 | 0.00 | 0.00 | 0.00 | 49 | 1017.8 |
| 20260902040507 | 65 | 13 | 1.7 | 2.6 | 0.00 | 0.00 | 0.00 | 49 | 1017.8 |
| 20260902040008 | 65 | 13 | 1.7 | 2.6 | 0.00 | 0.00 | 0.00 | 49 | 1017.9 |
| 20260902035507 | 65 | 11 | 2.6 | 4.3 | 0.00 | 0.00 | 0.00 | 47 | 1017.9 |
| 20260902035008 | 65 | 11 | 2.6 | 4.3 | 0.00 | 0.00 | 0.00 | 47 | 1018.0 |
| 20260902034507 | 65 | 11 | 2.6 | 4.3 | 0.00 | 0.00 | 0.00 | 46 | 1017.9 |
| 20260902034008 | 65 | 11 | 2.6 | 4.3 | 0.00 | 0.00 | 0.00 | 46 | 1017.9 |
| 20260902033508 | 65 | 11 | 1.7 | 4.3 | 0.00 | 0.00 | 0.00 | 44 | 1017.9 |
| 20260902033008 | 66 | 11 | 2.6 | 4.3 | 0.00 | 0.00 | 0.00 | 44 | 1017.9 |
| 20260902032508 | 66 | 11 | 2.6 | 2.6 | 0.00 | 0.00 | 0.00 | 44 | 1017.9 |
| 20260902032008 | 66 | 11 | 0.0 | 0.0 | 0.00 | 0.00 | 0.00 | 43 | 1018.0 |
| 20260902031007 | 67 | 11 | 0.0 | 0.0 | 0.00 | 0.00 | 0.00 | 42 | 1018.0 |
| 20260902030508 | 67 | 11 | 0.9 | 1.7 | 0.00 | 0.00 | 0.00 | 41 | 1017.9 |
| 20260902030008 | 68 | 11 | 0.9 | 1.7 | 0.00 | 0.00 | 0.00 | 41 | 1017.9 |
| 20260902025507 | 68 | 11 | 1.7 | 2.6 | 0.00 | 0.00 | 0.00 | 40 | 1017.9 |
| 20260902025008 | 68 | 11 | 2.6 | 2.6 | 0.00 | 0.00 | 0.00 | 41 | 1017.8 |
| 20260902024507 | 67 | 11 | 2.6 | 2.6 | 0.00 | 0.00 | 0.00 | 41 | 1017.7 |
| 20260902024008 | 67 | 11 | 2.6 | 2.6 | 0.00 | 0.00 | 0.00 | 41 | 1017.7 |
| 20260902023508 | 67 | 11 | 0.0 | 0.0 | 0.00 | 0.00 | 0.00 | 39 | 1017.7 |
| 20260902022507 | 67 | 11 | 0.0 | 0.0 | 0.00 | 0.00 | 0.00 | 38 | 1017.5 |
| 20260902021507 | 68 | 11 | 0.0 | 2.6 | 0.00 | 0.00 | 0.00 | 38 | 1017.6 |
| 20260902021008 | 68 | 11 | 0.9 | 2.6 | 0.00 | 0.00 | 0.00 | 37 | 1017.7 |
| 20260902020508 | 68 | 11 | 2.6 | 4.3 | 0.00 | 0.00 | 0.00 | 37 | 1017.5 |
| 20260902020008 | 67 | 19 | 2.6 | 4.3 | 0.00 | 0.00 | 0.00 | 37 | 1017.6 |
| 20260902015507 | 67 | 16 | 2.6 | 4.3 | 0.00 | 0.00 | 0.00 | 37 | 1017.6 |
| 20260902015008 | 67 | 20 | 1.7 | 4.3 | 0.00 | 0.00 | 0.00 | 37 | 1017.6 |
| 20260902014507 | 67 | 23 | 2.6 | 4.3 | 0.00 | 0.00 | 0.00 | 35 | 1017.5 |
| 20260902014008 | 68 | 12 | 1.7 | 2.6 | 0.00 | 0.00 | 0.00 | 36 | 1017.4 |
| 20260902013008 | 68 | 19 | 2.6 | 2.6 | 0.00 | 0.00 | 0.00 | 36 | 1017.5 |
| 20260902012508 | 68 | 24 | 2.6 | 4.3 | 0.00 | 0.00 | 0.00 | 35 | 1017.6 |
| 20260902011508 | 69 | 14 | 4.3 | 6.1 | 0.00 | 0.00 | 0.00 | 33 | 1017.5 |
| 20260902011007 | 69 | 25 | 2.6 | 4.3 | 0.00 | 0.00 | 0.00 | 33 | 1017.5 |
| 20260902010507 | 68 | 19 | 4.3 | 6.1 | 0.00 | 0.00 | 0.00 | 33 | 1017.4 |
| 20260902005519 | 69 | 15 | 1.7 | 2.6 | 0.00 | 0.00 | 0.00 | 32 | 1017.4 |
| 20260902005018 | 70 | 15 | 0.0 | 0.0 | 0.00 | 0.00 | 0.00 | 33 | 1017.4 |
| 20260902004508 | 70 | 15 | 0.0 | 0.0 | 0.00 | 0.00 | 0.00 | 32 | 1017.4 |
| 20260902003518 | 71 | 15 | 0.0 | 1.7 | 0.00 | 0.00 | 0.00 | 31 | 1017.4 |
| 20260902003008 | 72 | 15 | 0.9 | 2.6 | 0.00 | 0.00 | 0.00 | 31 | 1017.5 |
| 20260902002507 | 72 | 15 | 2.6 | 2.6 | 0.00 | 0.00 | 0.00 | 30 | 1017.5 |
| 20260902002018 | 72 | 15 | 1.7 | 2.6 | 0.00 | 0.00 | 0.00 | 30 | 1017.4 |
| 20260902001519 | 72 | 15 | 1.7 | 2.6 | 0.00 | 0.00 | 0.00 | 30 | 1017.5 |
| 20260902001018 | 71 | 7 | 2.6 | 2.6 | 0.00 | 0.00 | 0.00 | 31 | 1017.5 |
| 20260902000519 | 71 | 351 | 1.7 | 2.6 | 0.00 | 0.00 | 0.00 | 31 | 1017.6 |
| 20260902000019 | 71 | 351 | 1.7 | 2.6 | 0.00 | 0.00 | 0.00 | 31 | 1017.7 |
| 20260901235511 | 73 | 17 | 3.5 | 4.3 | 0.00 | 0.00 | 0.00 | 30 | 1017.7 |
| 20260901235018 | 73 | 19 | 3.5 | 4.3 | 0.00 | 0.00 | 0.00 | 30 | 1017.8 |
| 20260901234518 | 71 | 355 | 2.6 | 2.6 | 0.00 | 0.00 | 0.00 | 31 | 1017.9 |
| 20260901233519 | 70 | 18 | 4.3 | 5.2 | 0.00 | 0.00 | 0.00 | 32 | 1017.8 |
| 20260901232018 | 72 | 18 | 4.3 | 6.1 | 0.00 | 0.00 | 0.00 | 30 | 1017.8 |
| 20260901231508 | 73 | 28 | 0.0 | 0.0 | 0.00 | 0.00 | 0.00 | 30 | 1017.8 |
| 20260901231018 | 73 | 125 | 0.0 | 0.0 | 0.00 | 0.00 | 0.00 | 30 | 1017.8 |
| 20260901230518 | 74 | 125 | 0.0 | 2.6 | 0.00 | 0.00 | 0.00 | 30 | 1017.7 |
| 20260901230019 | 73 | 116 | 1.7 | 2.6 | 0.00 | 0.00 | 0.00 | 30 | 1017.7 |
| 20260901225518 | 73 | 84 | 1.7 | 2.6 | 0.00 | 0.00 | 0.00 | 31 | 1017.6 |
| 20260901225019 | 73 | 37 | 0.9 | 2.6 | 0.00 | 0.00 | 0.00 | 30 | 1017.3 |
| 20260901224520 | 73 | 37 | 0.0 | 0.0 | 0.00 | 0.00 | 0.00 | 30 | 1017.2 |
| 20260901224018 | 73 | 37 | 0.0 | 0.0 | 0.00 | 0.00 | 0.00 | 30 | 1017.1 |
| 20260901223522 | 73 | 37 | 0.0 | 0.9 | 0.00 | 0.00 | 0.00 | 30 | 1017.1 |
| 20260901223019 | 74 | 37 | 0.9 | 1.7 | 0.00 | 0.00 | 0.00 | 30 | 1017.0 |
| 20260901222518 | 74 | 37 | 1.7 | 2.6 | 0.00 | 0.00 | 0.00 | 29 | 1017.1 |
| 20260901222018 | 75 | 66 | 0.0 | 0.0 | 0.00 | 0.00 | 0.00 | 29 | 1017.0 |
| 20260901221519 | 75 | 66 | 0.9 | 1.7 | 0.00 | 0.00 | 0.00 | 28 | 1017.1 |
| 20260901221018 | 75 | 66 | 0.9 | 2.6 | 0.00 | 0.00 | 0.00 | 28 | 1017.0 |
| 20260901220019 | 75 | 101 | 1.7 | 4.3 | 0.00 | 0.00 | 0.00 | 29 | 1016.9 |
| 20260901215518 | 75 | 43 | 1.7 | 4.3 | 0.00 | 0.00 | 0.00 | 28 | 1016.9 |
| 20260901215018 | 76 | 306 | 0.0 | 1.7 | 0.00 | 0.00 | 0.00 | 27 | 1016.9 |
| 20260901214518 | 76 | 308 | 0.0 | 1.7 | 0.00 | 0.00 | 0.00 | 27 | 1016.8 |
| 20260901214018 | 77 | 311 | 1.7 | 5.2 | 0.00 | 0.00 | 0.00 | 26 | 1016.7 |
| 20260901213519 | 78 | 307 | 4.3 | 7.0 | 0.00 | 0.00 | 0.00 | 25 | 1016.8 |
| 20260901213007 | 79 | 313 | 5.2 | 7.0 | 0.00 | 0.00 | 0.00 | 25 | 1016.7 |
| 20260901212518 | 79 | 316 | 5.2 | 7.0 | 0.00 | 0.00 | 0.00 | 24 | 1016.6 |
| 20260901212018 | 79 | 316 | 5.2 | 7.0 | 0.00 | 0.00 | 0.00 | 25 | 1016.6 |
| 20260901211007 | 79 | 309 | 5.2 | 7.0 | 0.00 | 0.00 | 0.00 | 25 | 1016.6 |
| 20260901210518 | 79 | 307 | 4.3 | 6.1 | 0.00 | 0.00 | 0.00 | 24 | 1016.5 |
| 20260901210018 | 79 | 307 | 4.3 | 6.1 | 0.00 | 0.00 | 0.00 | 24 | 1016.5 |
| 20260901205518 | 79 | 310 | 4.3 | 7.0 | 0.00 | 0.00 | 0.00 | 24 | 1016.5 |
| 20260901205018 | 79 | 312 | 5.2 | 7.0 | 0.00 | 0.00 | 0.00 | 24 | 1016.4 |
| 20260901204518 | 78 | 310 | 4.3 | 7.0 | 0.00 | 0.00 | 0.00 | 25 | 1016.3 |
| 20260901204018 | 79 | 303 | 5.2 | 7.8 | 0.00 | 0.00 | 0.00 | 24 | 1016.3 |
| 20260901203518 | 79 | 310 | 6.1 | 7.8 | 0.00 | 0.00 | 0.00 | 24 | 1016.3 |
| 20260901203018 | 80 | 310 | 6.1 | 7.8 | 0.00 | 0.00 | 0.00 | 23 | 1016.0 |
| 20260901202518 | 81 | 309 | 6.1 | 7.8 | 0.00 | 0.00 | 0.00 | 23 | 1016.0 |
| 20260901202018 | 81 | 310 | 7.0 | 7.8 | 0.00 | 0.00 | 0.00 | 23 | 1015.9 |
| 20260901201518 | 81 | 314 | 7.0 | 8.7 | 0.00 | 0.00 | 0.00 | 23 | 1015.8 |
| 20260901201018 | 81 | 311 | 7.0 | 7.8 | 0.00 | 0.00 | 0.00 | 23 | 1015.6 |
| 20260901200519 | 81 | 311 | 7.0 | 8.7 | 0.00 | 0.00 | 0.00 | 23 | 1015.6 |
| 20260901200018 | 81 | 316 | 7.0 | 8.7 | 0.00 | 0.00 | 0.00 | 23 | 1015.6 |
| 20260901195017 | 82 | 315 | 6.1 | 7.0 | 0.00 | 0.00 | 0.00 | 22 | 1015.6 |
| 20260901194507 | 81 | 317 | 6.1 | 7.8 | 0.00 | 0.00 | 0.00 | 23 | 1015.4 |
| 20260901194007 | 81 | 312 | 7.0 | 7.8 | 0.00 | 0.00 | 0.00 | 23 | 1015.4 |
| 20260901193507 | 82 | 312 | 5.2 | 7.0 | 0.00 | 0.00 | 0.00 | 23 | 1015.3 |
| 20260901193018 | 82 | 313 | 5.2 | 7.0 | 0.00 | 0.00 | 0.00 | 23 | 1015.3 |
| 20260901192518 | 82 | 313 | 5.2 | 7.0 | 0.00 | 0.00 | 0.00 | 23 | 1015.1 |
| 20260901192018 | 82 | 310 | 6.1 | 7.8 | 0.00 | 0.00 | 0.00 | 23 | 1015.1 |
| 20260901191518 | 82 | 314 | 6.1 | 7.8 | 0.00 | 0.00 | 0.00 | 23 | 1015.0 |
| 20260901191018 | 82 | 311 | 5.2 | 7.8 | 0.00 | 0.00 | 0.00 | 23 | 1015.0 |
| 20260901190518 | 83 | 305 | 5.2 | 7.0 | 0.00 | 0.00 | 0.00 | 22 | 1015.0 |
| 20260901190018 | 84 | 300 | 5.2 | 8.7 | 0.00 | 0.00 | 0.00 | 22 | 1014.9 |
| 20260901185017 | 85 | 299 | 2.6 | 4.3 | 0.00 | 0.00 | 0.00 | 22 | 1014.8 |
| 20260901184018 | 87 | 299 | 3.5 | 7.8 | 0.00 | 0.00 | 0.00 | 21 | 1014.8 |
| 20260901183518 | 87 | 289 | 5.2 | 7.0 | 0.00 | 0.00 | 0.00 | 21 | 1014.8 |
| 20260901183018 | 88 | 300 | 4.3 | 7.8 | 0.00 | 0.00 | 0.00 | 21 | 1014.8 |
| 20260901182506 | 88 | 300 | 5.2 | 7.8 | 0.00 | 0.00 | 0.00 | 21 | 1014.8 |
| 20260901182007 | 88 | 288 | 5.2 | 8.7 | 0.00 | 0.00 | 0.00 | 21 | 1014.7 |
| 20260901181523 | 88 | 288 | 6.1 | 8.7 | 0.00 | 0.00 | 0.00 | 21 | 1014.7 |
| 20260901180514 | 89 | 261 | 5.2 | 10.4 | 0.00 | 0.00 | 0.00 | 21 | 1014.5 |
| 20260901180017 | 89 | 287 | 5.2 | 10.4 | 0.00 | 0.00 | 0.00 | 21 | 1014.5 |
| 20260901175517 | 89 | 278 | 4.3 | 7.8 | 0.00 | 0.00 | 0.00 | 20 | 1014.6 |
| 20260901175018 | 90 | 282 | 4.3 | 10.4 | 0.00 | 0.00 | 0.00 | 20 | 1014.6 |
| 20260901174518 | 90 | 286 | 6.1 | 11.3 | 0.00 | 0.00 | 0.00 | 20 | 1014.6 |
| 20260901173518 | 91 | 281 | 5.2 | 8.7 | 0.00 | 0.00 | 0.00 | 20 | 1014.6 |
| 20260901173007 | 91 | 275 | 2.6 | 10.4 | 0.00 | 0.00 | 0.00 | 20 | 1014.6 |
| 20260901172007 | 91 | 265 | 2.6 | 7.0 | 0.00 | 0.00 | 0.00 | 20 | 1014.5 |
| 20260901171507 | 90 | 238 | 4.3 | 10.4 | 0.00 | 0.00 | 0.00 | 20 | 1014.6 |
| 20260901170506 | 90 | 235 | 4.3 | 10.4 | 0.00 | 0.00 | 0.00 | 20 | 1014.6 |
| 20260901170018 | 91 | 273 | 2.6 | 6.1 | 0.00 | 0.00 | 0.00 | 20 | 1014.6 |
| 20260901165518 | 90 | 232 | 2.6 | 10.4 | 0.00 | 0.00 | 0.00 | 20 | 1014.6 |
| 20260901164518 | 91 | 227 | 5.2 | 12.2 | 0.00 | 0.00 | 0.00 | 20 | 1014.7 |
| 20260901164018 | 91 | 269 | 4.3 | 7.8 | 0.00 | 0.00 | 0.00 | 20 | 1014.5 |
| 20260901163518 | 91 | 210 | 6.1 | 10.4 | 0.00 | 0.00 | 0.00 | 21 | 1014.6 |
| 20260901163007 | 91 | 258 | 6.1 | 11.3 | 0.00 | 0.00 | 0.00 | 21 | 1014.6 |
| 20260901162518 | 91 | 253 | 4.3 | 10.4 | 0.00 | 0.00 | 0.00 | 20 | 1014.6 |
| 20260901162018 | 91 | 253 | 6.1 | 11.3 | 0.00 | 0.00 | 0.00 | 20 | 1014.6 |
| 20260901161517 | 91 | 243 | 5.2 | 10.4 | 0.00 | 0.00 | 0.00 | 20 | 1014.5 |
| 20260901161017 | 91 | 218 | 5.2 | 11.3 | 0.00 | 0.00 | 0.00 | 21 | 1014.5 |
| 20260901160507 | 91 | 232 | 7.0 | 12.2 | 0.00 | 0.00 | 0.00 | 20 | 1014.7 |
| 20260901160018 | 91 | 253 | 4.3 | 11.3 | 0.00 | 0.00 | 0.00 | 22 | 1014.6 |
| 20260901155517 | 91 | 285 | 7.8 | 13.9 | 0.00 | 0.00 | 0.00 | 21 | 1014.6 |
| 20260901155017 | 92 | 263 | 4.3 | 10.4 | 0.00 | 0.00 | 0.00 | 21 | 1014.7 |
| 20260901154517 | 91 | 257 | 4.3 | 11.3 | 0.00 | 0.00 | 0.00 | 21 | 1014.7 |
| 20260901154007 | 91 | 221 | 5.2 | 12.2 | 0.00 | 0.00 | 0.00 | 21 | 1014.7 |
| 20260901153518 | 91 | 240 | 7.8 | 12.2 | 0.00 | 0.00 | 0.00 | 21 | 1014.7 |
| 20260901153018 | 91 | 227 | 6.1 | 10.4 | 0.00 | 0.00 | 0.00 | 21 | 1014.8 |
| 20260901152518 | 90 | 219 | 5.2 | 8.7 | 0.00 | 0.00 | 0.00 | 23 | 1014.8 |
| 20260901151518 | 91 | 208 | 1.7 | 10.4 | 0.00 | 0.00 | 0.00 | 24 | 1014.8 |
| 20260901151017 | 91 | 210 | 3.5 | 7.8 | 0.00 | 0.00 | 0.00 | 23 | 1014.7 |
| 20260901150518 | 90 | 242 | 2.6 | 10.4 | 0.00 | 0.00 | 0.00 | 24 | 1014.7 |
| 20260901150007 | 90 | 188 | 7.8 | 14.8 | 0.00 | 0.00 | 0.00 | 24 | 1014.7 |
| 20260901145507 | 90 | 212 | 5.2 | 11.3 | 0.00 | 0.00 | 0.00 | 24 | 1014.6 |
| 20260901145007 | 90 | 260 | 5.2 | 11.3 | 0.00 | 0.00 | 0.00 | 24 | 1014.6 |
| 20260901144507 | 90 | 224 | 8.7 | 13.0 | 0.00 | 0.00 | 0.00 | 24 | 1014.6 |
| 20260901142518 | 89 | 191 | 8.7 | 12.2 | 0.00 | 0.00 | 0.00 | 25 | 1014.8 |
| 20260901142018 | 90 | 188 | 4.3 | 10.4 | 0.00 | 0.00 | 0.00 | 25 | 1014.9 |
| 20260901141017 | 90 | 260 | 6.1 | 12.2 | 0.00 | 0.00 | 0.00 | 24 | 1015.1 |
| 20260901140506 | 89 | 214 | 2.6 | 11.3 | 0.00 | 0.00 | 0.00 | 25 | 1015.1 |
| 20260901140018 | 89 | 210 | 6.1 | 18.2 | 0.00 | 0.00 | 0.00 | 27 | 1015.3 |
| 20260901135517 | 89 | 184 | 3.5 | 7.0 | 0.00 | 0.00 | 0.00 | 28 | 1015.1 |
| 20260901135017 | 88 | 234 | 4.3 | 7.8 | 0.00 | 0.00 | 0.00 | 28 | 1015.2 |
| 20260901134506 | 89 | 234 | 4.3 | 8.7 | 0.00 | 0.00 | 0.00 | 28 | 1015.2 |
| 20260901134017 | 89 | 239 | 4.3 | 10.4 | 0.00 | 0.00 | 0.00 | 29 | 1015.4 |
| 20260901133518 | 88 | 240 | 1.7 | 6.1 | 0.00 | 0.00 | 0.00 | 30 | 1015.3 |
| 20260901133018 | 87 | 235 | 2.6 | 11.3 | 0.00 | 0.00 | 0.00 | 30 | 1015.4 |
| 20260901132517 | 88 | 280 | 8.7 | 12.2 | 0.00 | 0.00 | 0.00 | 30 | 1015.4 |
| 20260901132017 | 88 | 256 | 4.3 | 10.4 | 0.00 | 0.00 | 0.00 | 30 | 1015.4 |
| 20260901131517 | 88 | 203 | 6.1 | 13.0 | 0.00 | 0.00 | 0.00 | 29 | 1015.5 |
| 20260901131017 | 87 | 161 | 3.5 | 6.1 | 0.00 | 0.00 | 0.00 | 30 | 1015.5 |
| 20260901130517 | 87 | 153 | 5.2 | 10.4 | 0.00 | 0.00 | 0.00 | 32 | 1015.7 |
| 20260901130017 | 87 | 196 | 6.1 | 10.4 | 0.00 | 0.00 | 0.00 | 31 | 1015.8 |
| 20260901125517 | 87 | 229 | 5.2 | 10.4 | 0.00 | 0.00 | 0.00 | 31 | 1015.9 |
| 20260901125017 | 87 | 232 | 6.1 | 11.3 | 0.00 | 0.00 | 0.00 | 29 | 1016.0 |
| 20260901124517 | 87 | 319 | 1.7 | 4.3 | 0.00 | 0.00 | 0.00 | 32 | 1015.9 |
| 20260901124017 | 87 | 238 | 2.6 | 8.7 | 0.00 | 0.00 | 0.00 | 31 | 1015.9 |
| 20260901123517 | 87 | 227 | 6.1 | 10.4 | 0.00 | 0.00 | 0.00 | 32 | 1016.0 |
| 20260901123007 | 86 | 234 | 2.6 | 8.7 | 0.00 | 0.00 | 0.00 | 34 | 1016.0 |
| 20260901122507 | 86 | 270 | 2.6 | 6.1 | 0.00 | 0.00 | 0.00 | 35 | 1015.9 |
| 20260901122017 | 86 | 247 | 1.7 | 5.2 | 0.00 | 0.00 | 0.00 | 35 | 1016.0 |
| 20260901121518 | 85 | 189 | 4.3 | 8.7 | 0.00 | 0.00 | 0.00 | 35 | 1016.2 |
| 20260901121018 | 85 | 174 | 3.5 | 8.7 | 0.00 | 0.00 | 0.00 | 35 | 1016.1 |
| 20260901120017 | 84 | 198 | 3.5 | 8.7 | 0.00 | 0.00 | 0.00 | 36 | 1016.1 |
| 20260901115506 | 84 | 282 | 0.9 | 5.2 | 0.00 | 0.00 | 0.00 | 38 | 1016.3 |
| 20260901115017 | 84 | 188 | 2.6 | 10.4 | 0.00 | 0.00 | 0.00 | 38 | 1016.3 |
| 20260901114517 | 84 | 126 | 1.7 | 5.2 | 0.00 | 0.00 | 0.00 | 40 | 1016.3 |
| 20260901114017 | 84 | 289 | 3.5 | 10.4 | 0.00 | 0.00 | 0.00 | 39 | 1016.3 |
| 20260901113517 | 83 | 237 | 0.9 | 2.6 | 0.00 | 0.00 | 0.00 | 42 | 1016.5 |